createdAt,value
2018-03-08T00:01:47.118Z,135.35
2018-03-08T00:02:49.698Z,151.43
2018-03-08T00:03:52.538Z,146.30
2018-03-08T00:04:55.035Z,146.52
2018-03-08T00:05:58.269Z,151.52
2018-03-08T00:07:02.156Z,156.40
2018-03-08T00:08:04.679Z,152.45
2018-03-08T00:09:07.899Z,158.10
2018-03-08T00:10:10.384Z,161.55
2018-03-08T00:11:12.849Z,151.50
2018-03-08T00:12:16.346Z,148.43
2018-03-08T00:13:18.916Z,154.27
2018-03-08T00:14:21.961Z,157.37
2018-03-08T00:15:24.624Z,153.10
2018-03-08T00:16:27.630Z,144.93
2018-03-08T00:17:30.106Z,157.35
2018-03-08T00:18:32.630Z,150.70
2018-03-08T00:19:35.094Z,151.75
2018-03-08T00:20:39.096Z,148.32
2018-03-08T00:21:42.622Z,149.70
2018-03-08T00:22:46.136Z,150.45
2018-03-08T00:23:49.348Z,157.23
2018-03-08T00:24:51.805Z,144.48
2018-03-08T00:25:54.305Z,147.10
2018-03-08T00:26:57.627Z,143.65
2018-03-08T00:28:01.087Z,156.73
2018-03-08T00:29:03.542Z,146.15
2018-03-08T00:30:06.042Z,151.00
2018-03-08T00:31:08.601Z,137.20
2018-03-08T00:32:11.061Z,135.52
2018-03-08T00:33:14.299Z,146.98
2018-03-08T00:34:17.706Z,143.07
2018-03-08T00:35:20.214Z,146.45
2018-03-08T00:36:23.685Z,146.00
2018-03-08T00:37:26.160Z,165.70
2018-03-08T00:38:28.650Z,153.48
2018-03-08T00:39:31.824Z,146.73
2018-03-08T00:40:34.338Z,148.05
2018-03-08T00:41:37.586Z,138.48
2018-03-08T00:42:40.838Z,139.00
2018-03-08T00:43:43.461Z,141.60
2018-03-08T00:44:45.912Z,142.30
2018-03-08T00:45:48.776Z,147.32
2018-03-08T00:46:52.327Z,141.48
2018-03-08T00:47:56.364Z,142.07
2018-03-08T00:48:59.888Z,146.93
2018-03-08T00:50:03.357Z,148.80
2018-03-08T00:51:08.157Z,144.18
2018-03-08T00:52:12.007Z,144.77
2018-03-08T00:53:14.490Z,151.93
2018-03-08T00:54:17.062Z,144.07
2018-03-08T00:55:19.556Z,140.12
2018-03-08T00:56:22.071Z,128.30
2018-03-08T00:57:24.558Z,140.95
2018-03-08T00:58:27.143Z,139.18
2018-03-08T00:59:29.854Z,149.93
2018-03-08T01:00:32.898Z,136.27
2018-03-08T01:01:35.376Z,136.30
2018-03-08T01:02:37.896Z,141.30
2018-03-08T01:03:40.469Z,130.00
2018-03-08T01:04:42.998Z,143.20
2018-03-08T01:05:45.558Z,138.25
2018-03-08T01:06:48.041Z,132.10
2018-03-08T01:07:50.501Z,137.62
2018-03-08T01:08:52.994Z,140.73
2018-03-08T01:09:55.489Z,135.65
2018-03-08T01:10:58.720Z,133.93
2018-03-08T01:12:01.200Z,132.95
2018-03-08T01:13:03.771Z,132.90
2018-03-08T01:14:06.331Z,123.47
2018-03-08T01:15:09.591Z,140.57
2018-03-08T01:16:12.053Z,137.02
2018-03-08T01:17:14.527Z,129.95
2018-03-08T01:18:17.024Z,130.50
2018-03-08T01:19:20.296Z,142.73
2018-03-08T01:20:22.954Z,136.68
2018-03-08T01:21:25.418Z,136.75
2018-03-08T01:22:27.903Z,137.68
2018-03-08T01:23:30.379Z,131.10
2018-03-08T01:24:33.616Z,138.18
2018-03-08T01:25:36.100Z,137.88
2018-03-08T01:26:38.598Z,141.98
2018-03-08T01:27:41.062Z,133.75
2018-03-08T01:28:43.739Z,134.07
2018-03-08T01:29:47.052Z,139.65
2018-03-08T01:30:49.664Z,141.23
2018-03-08T01:31:52.149Z,134.35
2018-03-08T01:32:54.629Z,133.57
2018-03-08T01:33:57.216Z,140.65
2018-03-08T01:34:59.768Z,137.88
2018-03-08T01:36:02.329Z,141.23
2018-03-08T01:37:04.882Z,133.77
2018-03-08T01:38:07.400Z,139.40
2018-03-08T01:39:09.927Z,144.62
2018-03-08T01:40:12.398Z,162.80
2018-03-08T01:41:14.964Z,147.40
2018-03-08T01:42:18.224Z,136.77
2018-03-08T01:43:20.692Z,135.48
2018-03-08T01:44:23.198Z,138.62
2018-03-08T01:45:25.688Z,135.63
2018-03-08T01:46:28.925Z,148.60
2018-03-08T01:47:32.172Z,144.90
2018-03-08T01:48:35.613Z,148.80
2018-03-08T01:49:38.868Z,140.18
2018-03-08T01:50:41.341Z,139.20
2018-03-08T01:51:55.719Z,142.68
2018-03-08T01:52:58.198Z,139.15
2018-03-08T01:54:01.458Z,136.52
2018-03-08T01:55:03.913Z,140.45
2018-03-08T01:56:06.376Z,153.50
2018-03-08T01:57:09.657Z,142.65
2018-03-08T01:58:12.119Z,145.05
2018-03-08T01:59:14.600Z,133.50
2018-03-08T02:00:17.104Z,141.98
2018-03-08T02:01:20.378Z,144.05
2018-03-08T02:02:22.869Z,135.55
2018-03-08T02:03:26.116Z,142.02
2018-03-08T02:04:28.921Z,138.40
2018-03-08T02:05:31.434Z,139.68
2018-03-08T02:06:33.937Z,134.82
2018-03-08T02:07:36.452Z,133.75
2018-03-08T02:08:39.478Z,151.80
2018-03-08T02:09:41.960Z,145.87
2018-03-08T02:10:45.046Z,146.68
2018-03-08T02:11:47.563Z,134.30
2018-03-08T02:12:50.789Z,141.90
2018-03-08T02:13:54.076Z,138.73
2018-03-08T02:14:56.550Z,144.35
2018-03-08T02:15:59.105Z,140.12
2018-03-08T02:17:01.605Z,139.77
2018-03-08T02:18:04.173Z,151.37
2018-03-08T02:19:06.717Z,148.00
2018-03-08T02:20:09.194Z,157.02
2018-03-08T02:21:12.435Z,157.82
2018-03-08T02:22:15.675Z,154.40
2018-03-08T02:23:18.942Z,146.62
2018-03-08T02:24:21.430Z,153.85
2018-03-08T02:25:23.881Z,155.63
2018-03-08T02:26:28.041Z,144.30
2018-03-08T02:27:31.285Z,141.73
2018-03-08T02:28:33.790Z,142.18
2018-03-08T02:29:37.156Z,154.10
2018-03-08T02:30:39.684Z,159.80
2018-03-08T02:31:42.144Z,149.35
2018-03-08T02:32:44.643Z,151.68
2018-03-08T02:33:47.123Z,150.25
2018-03-08T02:34:49.596Z,140.93
2018-03-08T02:35:52.094Z,151.52
2018-03-08T02:36:55.317Z,139.75
2018-03-08T02:37:57.795Z,138.52
2018-03-08T02:39:00.284Z,134.10
2018-03-08T02:40:03.662Z,144.10
2018-03-08T02:41:07.206Z,136.70
2018-03-08T02:42:09.715Z,151.50
2018-03-08T02:43:12.349Z,141.70
2018-03-08T02:44:16.168Z,144.43
2018-03-08T02:45:18.654Z,141.60
2018-03-08T02:46:21.249Z,151.55
2018-03-08T02:47:24.508Z,139.88
2018-03-08T02:48:26.991Z,148.80
2018-03-08T02:49:29.487Z,140.85
2018-03-08T02:50:31.982Z,147.52
2018-03-08T02:51:34.570Z,143.95
2018-03-08T02:52:37.098Z,161.40
2018-03-08T02:53:39.600Z,148.70
2018-03-08T02:54:42.095Z,147.70
2018-03-08T02:55:45.035Z,155.35
2018-03-08T02:56:47.502Z,143.32
2018-03-08T02:57:50.170Z,137.05
2018-03-08T02:58:52.823Z,147.25
2018-03-08T02:59:55.318Z,142.52
2018-03-08T03:00:58.596Z,143.82
2018-03-08T03:02:01.070Z,145.23
2018-03-08T03:03:03.627Z,147.65
2018-03-08T03:04:06.139Z,151.55
2018-03-08T03:05:09.357Z,135.98
2018-03-08T03:06:13.089Z,135.18
2018-03-08T03:07:15.571Z,146.15
2018-03-08T03:08:18.251Z,141.15
2018-03-08T03:09:20.725Z,153.35
2018-03-08T03:10:23.215Z,149.43
2018-03-08T03:11:25.771Z,155.80
2018-03-08T03:12:28.251Z,153.05
2018-03-08T03:13:31.505Z,156.43
2018-03-08T03:14:33.954Z,148.30
2018-03-08T03:15:37.194Z,150.80
2018-03-08T03:16:40.428Z,152.45
2018-03-08T03:17:43.645Z,148.93
2018-03-08T03:18:46.156Z,141.55
2018-03-08T03:19:48.647Z,145.10
2018-03-08T03:20:51.176Z,153.27
2018-03-08T03:21:53.705Z,159.20
2018-03-08T03:22:56.178Z,154.52
2018-03-08T03:23:58.765Z,152.82
2018-03-08T03:25:01.229Z,146.57
2018-03-08T03:26:03.741Z,149.77
2018-03-08T03:27:06.218Z,152.00
2018-03-08T03:28:08.711Z,152.57
2018-03-08T03:29:11.174Z,156.70
2018-03-08T03:30:13.655Z,156.82
2018-03-08T03:31:16.171Z,153.95
2018-03-08T03:32:19.352Z,163.05
2018-03-08T03:33:22.611Z,161.60
2018-03-08T03:34:25.183Z,150.25
2018-03-08T03:35:27.634Z,161.32
2018-03-08T03:36:30.880Z,149.25
2018-03-08T03:37:34.128Z,145.65
2018-03-08T03:38:37.481Z,163.12
2018-03-08T03:39:39.959Z,149.95
2018-03-08T03:40:42.547Z,141.35
2018-03-08T03:41:45.037Z,157.93
2018-03-08T03:42:48.309Z,154.12
2018-03-08T03:43:50.776Z,152.80
2018-03-08T03:44:53.310Z,160.18
2018-03-08T03:45:55.783Z,149.30
2018-03-08T03:46:58.330Z,154.73
2018-03-08T03:48:00.836Z,139.12
2018-03-08T03:49:03.424Z,145.85
2018-03-08T03:50:06.695Z,150.12
2018-03-08T03:51:09.949Z,147.65
2018-03-08T03:52:12.466Z,144.00
2018-03-08T03:53:14.983Z,148.52
2018-03-08T03:54:18.220Z,157.00
2018-03-08T03:55:21.444Z,156.95
2018-03-08T03:56:24.720Z,165.55
2018-03-08T03:57:27.178Z,163.02
2018-03-08T03:58:29.645Z,177.55
2018-03-08T03:59:32.883Z,159.55
2018-03-08T04:00:35.425Z,162.70
2018-03-08T04:01:38.689Z,159.35
2018-03-08T04:02:41.165Z,149.82
2018-03-08T04:03:43.635Z,160.82
2018-03-08T04:04:46.124Z,150.80
2018-03-08T04:05:48.675Z,157.98
2018-03-08T04:06:51.946Z,155.93
2018-03-08T04:07:54.587Z,158.77
2018-03-08T04:10:06.183Z,150.90
2018-03-08T04:11:08.682Z,166.55
2018-03-08T04:12:11.173Z,163.07
2018-03-08T04:13:13.634Z,166.12
2018-03-08T04:14:16.114Z,163.52
2018-03-08T04:15:18.569Z,162.48
2018-03-08T04:16:21.914Z,161.20
2018-03-08T04:17:25.180Z,158.57
2018-03-08T04:18:28.120Z,153.82
2018-03-08T04:19:30.580Z,152.85
2018-03-08T04:20:33.039Z,172.52
2018-03-08T04:21:36.395Z,156.45
2018-03-08T04:22:39.636Z,161.45
2018-03-08T04:23:42.125Z,157.93
2018-03-08T04:24:44.615Z,156.73
2018-03-08T04:25:47.092Z,159.40
2018-03-08T04:26:50.335Z,149.95
2018-03-08T04:27:53.575Z,160.50
2018-03-08T04:28:56.816Z,159.87
2018-03-08T04:30:00.087Z,148.13
2018-03-08T04:31:04.346Z,172.70
2018-03-08T04:32:06.927Z,158.50
2018-03-08T04:33:09.417Z,151.65
2018-03-08T04:34:11.886Z,166.30
2018-03-08T04:35:14.345Z,158.65
2018-03-08T04:36:17.581Z,168.30
2018-03-08T04:37:21.566Z,158.48
2018-03-08T04:38:24.073Z,167.73
2018-03-08T04:39:26.600Z,157.43
2018-03-08T04:40:29.082Z,158.00
2018-03-08T04:41:31.557Z,155.80
2018-03-08T04:42:34.713Z,160.43
2018-03-08T04:43:37.190Z,155.60
2018-03-08T04:44:40.426Z,158.23
2018-03-08T04:45:42.878Z,164.05
2018-03-08T04:46:45.377Z,159.65
2018-03-08T04:47:47.828Z,158.48
2018-03-08T04:48:50.297Z,151.07
2018-03-08T04:49:52.884Z,160.75
2018-03-08T04:50:56.038Z,155.05
2018-03-08T04:51:58.569Z,162.43
2018-03-08T04:53:01.030Z,159.63
2018-03-08T04:54:03.493Z,138.90
2018-03-08T04:55:05.969Z,137.98
2018-03-08T04:56:08.436Z,143.23
2018-03-08T04:57:10.926Z,136.95
2018-03-08T04:58:14.159Z,153.15
2018-03-08T04:59:16.636Z,160.27
2018-03-08T05:00:19.130Z,153.80
2018-03-08T05:01:21.598Z,147.65
2018-03-08T05:02:25.885Z,163.25
2018-03-08T05:03:28.357Z,157.62
2018-03-08T05:04:31.598Z,165.68
2018-03-08T05:05:34.311Z,158.23
2018-03-08T05:06:36.778Z,157.35
2018-03-08T05:07:39.355Z,152.95
2018-03-08T05:08:42.931Z,155.50
2018-03-08T05:09:46.164Z,158.37
2018-03-08T05:10:48.731Z,153.82
2018-03-08T05:11:51.199Z,149.20
2018-03-08T05:12:53.657Z,162.52
2018-03-08T05:13:56.897Z,148.25
2018-03-08T05:15:00.135Z,154.25
2018-03-08T05:16:03.376Z,144.43
2018-03-08T05:17:06.594Z,152.70
2018-03-08T05:18:09.840Z,146.93
2018-03-08T05:19:12.305Z,140.40
2018-03-08T05:20:14.797Z,149.15
2018-03-08T05:21:17.289Z,146.82
2018-03-08T05:22:19.755Z,155.32
2018-03-08T05:23:22.220Z,147.35
2018-03-08T05:24:24.695Z,158.50
2018-03-08T05:25:27.158Z,153.57
2018-03-08T05:26:29.637Z,141.98
2018-03-08T05:27:32.108Z,142.98
2018-03-08T05:28:34.607Z,142.00
2018-03-08T05:29:37.854Z,145.65
2018-03-08T05:30:41.129Z,142.32
2018-03-08T05:31:43.587Z,134.48
2018-03-08T05:32:46.057Z,154.25
2018-03-08T05:33:49.312Z,141.30
2018-03-08T05:34:51.812Z,147.93
2018-03-08T05:35:55.087Z,140.65
2018-03-08T05:36:57.559Z,134.77
2018-03-08T05:38:00.016Z,138.85
2018-03-08T05:39:03.270Z,140.45
2018-03-08T05:40:05.790Z,130.23
2018-03-08T05:41:09.042Z,128.80
2018-03-08T05:42:11.513Z,135.98
2018-03-08T05:43:14.082Z,127.87
2018-03-08T05:44:16.569Z,128.35
2018-03-08T05:45:19.049Z,134.60
2018-03-08T05:46:21.521Z,131.20
2018-03-08T05:47:25.580Z,127.00
2018-03-08T05:48:28.070Z,134.70
2018-03-08T05:49:30.532Z,124.68
2018-03-08T05:50:33.124Z,126.97
2018-03-08T05:51:35.680Z,126.72
2018-03-08T05:52:38.180Z,121.87
2018-03-08T05:53:40.653Z,129.45
2018-03-08T05:54:43.930Z,122.80
2018-03-08T05:55:46.411Z,119.35
2018-03-08T05:56:49.714Z,121.78
2018-03-08T05:57:52.220Z,118.68
2018-03-08T05:58:54.727Z,117.05
2018-03-08T05:59:57.978Z,122.32
2018-03-08T06:01:01.212Z,120.30
2018-03-08T06:02:04.536Z,122.37
2018-03-08T06:03:07.058Z,123.30
2018-03-08T06:04:09.634Z,120.53
2018-03-08T06:05:12.459Z,123.47
2018-03-08T06:06:14.987Z,133.68
2018-03-08T06:07:17.526Z,135.52
2018-03-08T06:08:20.732Z,132.12
2018-03-08T06:09:23.998Z,154.65
2018-03-08T06:10:26.524Z,130.60
2018-03-08T06:11:29.031Z,144.30
2018-03-08T06:12:32.348Z,134.05
2018-03-08T06:13:34.831Z,149.15
2018-03-08T06:14:37.344Z,134.45
2018-03-08T06:15:39.838Z,123.47
2018-03-08T06:16:42.315Z,124.90
2018-03-08T06:17:44.778Z,111.40
2018-03-08T06:18:48.775Z,121.60
2018-03-08T06:19:51.276Z,120.15
2018-03-08T06:20:54.541Z,118.62
2018-03-08T06:21:57.022Z,116.90
2018-03-08T06:22:59.593Z,116.72
2018-03-08T06:24:02.094Z,114.85
2018-03-08T06:25:05.345Z,119.70
2018-03-08T06:26:08.614Z,121.43
2018-03-08T06:27:11.104Z,113.70
2018-03-08T06:28:13.559Z,120.55
2018-03-08T06:29:18.429Z,110.90
2018-03-08T06:30:20.912Z,107.70
2018-03-08T06:31:23.376Z,108.20
2018-03-08T06:32:26.723Z,111.55
2018-03-08T06:33:29.950Z,109.95
2018-03-08T06:34:33.319Z,106.93
2018-03-08T06:35:35.846Z,109.50
2018-03-08T06:36:38.359Z,104.45
2018-03-08T06:37:40.867Z,131.77
2018-03-08T06:38:44.105Z,99.20
2018-03-08T06:39:47.343Z,110.53
2018-03-08T06:40:49.949Z,106.20
2018-03-08T06:41:52.397Z,114.45
2018-03-08T06:42:54.947Z,109.03
2018-03-08T06:43:58.199Z,103.82
2018-03-08T06:45:00.698Z,95.57
2018-03-08T06:46:03.942Z,90.87
2018-03-08T06:47:07.242Z,97.85
2018-03-08T06:48:09.732Z,94.25
2018-03-08T06:49:12.257Z,87.45
2018-03-08T06:50:14.782Z,86.32
2018-03-08T06:51:17.288Z,87.03
2018-03-08T06:52:20.529Z,81.30
2018-03-08T06:53:23.763Z,86.80
2018-03-08T06:54:26.235Z,85.07
2018-03-08T06:55:28.704Z,87.57
2018-03-08T06:56:31.268Z,86.18
2018-03-08T06:57:33.731Z,88.90
2018-03-08T06:58:36.222Z,74.40
2018-03-08T06:59:38.708Z,87.82
2018-03-08T07:00:41.173Z,79.05
2018-03-08T07:01:43.689Z,76.50
2018-03-08T07:02:46.186Z,71.68
2018-03-08T07:03:48.666Z,69.80
2018-03-08T07:04:51.143Z,72.55
2018-03-08T07:05:54.364Z,73.85
2018-03-08T07:06:56.934Z,65.60
2018-03-08T07:07:59.451Z,63.08
2018-03-08T07:09:02.716Z,71.30
2018-03-08T07:10:05.181Z,68.20
2018-03-08T07:11:08.723Z,69.47
2018-03-08T07:12:11.201Z,70.25
2018-03-08T07:13:14.489Z,71.40
2018-03-08T07:14:16.974Z,68.60
2018-03-08T07:15:19.503Z,65.57
2018-03-08T07:16:21.998Z,66.22
2018-03-08T07:17:24.471Z,70.47
2018-03-08T07:18:27.576Z,61.65
2018-03-08T07:19:30.832Z,65.03
2018-03-08T07:20:33.282Z,61.00
2018-03-08T07:21:35.856Z,53.53
2018-03-08T07:22:39.162Z,59.95
2018-03-08T07:23:41.656Z,62.35
2018-03-08T07:24:44.131Z,64.32
2018-03-08T07:25:46.704Z,62.85
2018-03-08T07:26:49.674Z,68.28
2018-03-08T07:27:52.188Z,62.60
2018-03-08T07:28:54.667Z,57.33
2018-03-08T07:29:57.935Z,55.35
2018-03-08T07:31:00.407Z,53.97
2018-03-08T07:32:02.887Z,54.28
2018-03-08T07:33:05.377Z,54.53
2018-03-08T07:34:07.859Z,56.67
2018-03-08T07:35:10.369Z,49.63
2018-03-08T07:36:13.554Z,48.20
2018-03-08T07:37:16.028Z,52.70
2018-03-08T07:38:18.534Z,51.45
2018-03-08T07:39:21.776Z,46.08
2018-03-08T07:40:25.039Z,55.35
2018-03-08T07:41:27.532Z,48.15
2018-03-08T07:42:30.770Z,45.70
2018-03-08T07:43:33.223Z,43.75
2018-03-08T07:44:35.679Z,41.45
2018-03-08T07:45:38.125Z,44.40
2018-03-08T07:46:40.616Z,42.40
2018-03-08T07:47:43.084Z,41.70
2018-03-08T07:48:45.662Z,40.67
2018-03-08T07:49:48.217Z,49.50
2018-03-08T07:50:50.698Z,41.72
2018-03-08T07:51:53.185Z,50.55
2018-03-08T07:52:55.763Z,42.62
2018-03-08T07:53:58.232Z,41.05
2018-03-08T07:55:00.703Z,52.00
2018-03-08T07:56:03.196Z,41.97
2018-03-08T07:57:05.691Z,37.72
2018-03-08T07:58:08.166Z,40.97
2018-03-08T07:59:11.389Z,44.90
2018-03-08T08:00:14.344Z,40.58
2018-03-08T08:01:17.584Z,38.50
2018-03-08T08:02:20.843Z,48.63
2018-03-08T08:03:23.717Z,48.03
2018-03-08T08:04:37.918Z,38.35
2018-03-08T08:05:52.443Z,38.72
2018-03-08T08:07:07.715Z,40.88
2018-03-08T08:08:22.095Z,39.75
2018-03-08T08:09:24.574Z,38.55
2018-03-08T08:10:27.046Z,34.70
2018-03-08T08:11:29.556Z,40.67
2018-03-08T08:12:32.029Z,39.15
2018-03-08T08:13:34.555Z,38.85
2018-03-08T08:14:37.018Z,38.97
2018-03-08T08:15:40.322Z,42.95
2018-03-08T08:16:42.783Z,52.97
2018-03-08T08:17:46.017Z,44.22
2018-03-08T08:18:49.392Z,44.83
2018-03-08T08:19:51.904Z,33.85
2018-03-08T08:20:55.160Z,39.17
2018-03-08T08:21:58.425Z,36.22
2018-03-08T08:23:00.928Z,41.20
2018-03-08T08:24:03.377Z,37.47
2018-03-08T08:25:05.896Z,34.70
2018-03-08T08:26:08.407Z,38.92
2018-03-08T08:27:10.911Z,34.97
2018-03-08T08:28:14.175Z,38.63
2018-03-08T08:29:16.679Z,43.25
2018-03-08T08:30:19.938Z,39.85
2018-03-08T08:31:22.457Z,41.72
2018-03-08T08:32:24.969Z,39.53
2018-03-08T08:33:28.236Z,34.65
2018-03-08T08:34:30.735Z,35.58
2018-03-08T08:35:34.015Z,38.65
2018-03-08T08:36:36.497Z,36.05
2018-03-08T08:37:39.718Z,32.78
2018-03-08T08:38:42.204Z,36.90
2018-03-08T08:39:44.698Z,45.78
2018-03-08T08:40:47.176Z,34.33
2018-03-08T08:41:49.655Z,31.95
2018-03-08T08:42:52.176Z,37.55
2018-03-08T08:43:55.425Z,35.08
2018-03-08T08:44:57.975Z,34.35
2018-03-08T08:46:00.564Z,31.37
2018-03-08T08:47:03.023Z,32.38
2018-03-08T08:48:05.777Z,33.10
2018-03-08T08:49:08.257Z,30.75
2018-03-08T08:50:10.762Z,35.17
2018-03-08T08:51:13.282Z,34.38
2018-03-08T08:52:15.832Z,36.63
2018-03-08T08:53:19.085Z,34.28
2018-03-08T08:54:21.631Z,30.37
2018-03-08T08:55:24.163Z,34.40
2018-03-08T08:56:27.414Z,35.88
2018-03-08T08:57:29.880Z,32.88
2018-03-08T08:58:33.127Z,31.85
2018-03-08T08:59:36.380Z,31.73
2018-03-08T09:00:39.876Z,30.67
2018-03-08T09:01:42.333Z,32.75
2018-03-08T09:02:44.798Z,29.92
2018-03-08T09:03:47.367Z,31.65
2018-03-08T09:04:49.835Z,29.90
2018-03-08T09:05:52.320Z,36.13
2018-03-08T09:06:54.794Z,31.20
2018-03-08T09:07:57.262Z,30.33
2018-03-08T09:08:59.743Z,31.27
2018-03-08T09:10:02.261Z,28.80
2018-03-08T09:11:04.795Z,32.05
2018-03-08T09:12:07.258Z,30.67
2018-03-08T09:13:09.736Z,28.45
2018-03-08T09:14:12.210Z,27.50
2018-03-08T09:15:14.748Z,26.92
2018-03-08T09:16:17.211Z,29.92
2018-03-08T09:17:20.431Z,26.67
2018-03-08T09:18:23.667Z,26.37
2018-03-08T09:19:26.130Z,25.45
2018-03-08T09:20:28.620Z,26.33
2018-03-08T09:21:31.185Z,24.45
2018-03-08T09:22:33.684Z,24.17
2018-03-08T09:23:36.906Z,24.90
2018-03-08T09:24:39.351Z,22.80
2018-03-08T09:25:42.589Z,24.63
2018-03-08T09:26:45.835Z,23.85
2018-03-08T09:27:49.107Z,26.75
2018-03-08T09:28:51.586Z,21.62
2018-03-08T09:29:54.134Z,26.58
2018-03-08T09:30:57.342Z,22.35
2018-03-08T09:31:59.872Z,23.83
2018-03-08T09:33:02.415Z,26.73
2018-03-08T09:34:04.925Z,31.12
2018-03-08T09:35:07.416Z,25.90
2018-03-08T09:36:10.016Z,23.65
2018-03-08T09:37:12.538Z,23.75
2018-03-08T09:38:15.849Z,21.73
2018-03-08T09:39:18.575Z,25.35
2018-03-08T09:40:21.099Z,27.30
2018-03-08T09:41:23.601Z,24.90
2018-03-08T09:42:26.085Z,25.73
2018-03-08T09:43:28.638Z,24.75
2018-03-08T09:44:31.167Z,24.90
2018-03-08T09:45:33.650Z,24.45
2018-03-08T09:46:36.885Z,21.50
2018-03-08T09:47:40.190Z,23.77
2018-03-08T09:48:42.689Z,22.52
2018-03-08T09:49:45.162Z,22.35
2018-03-08T09:50:48.473Z,20.33
2018-03-08T09:51:51.031Z,16.12
2018-03-08T09:52:53.537Z,18.30
2018-03-08T09:53:56.046Z,16.80
2018-03-08T09:54:59.808Z,17.60
2018-03-08T09:56:02.301Z,18.90
2018-03-08T09:57:05.613Z,16.73
2018-03-08T09:58:08.089Z,18.30
2018-03-08T09:59:10.793Z,16.87
2018-03-08T10:00:14.041Z,18.12
2018-03-08T10:01:16.534Z,19.27
2018-03-08T10:02:19.829Z,19.15
2018-03-08T10:03:22.347Z,18.30
2018-03-08T10:04:24.881Z,19.62
2018-03-08T10:05:27.419Z,21.98
2018-03-08T10:06:29.934Z,18.25
2018-03-08T10:07:32.465Z,16.08
2018-03-08T10:08:34.951Z,17.33
2018-03-08T10:09:37.472Z,18.25
2018-03-08T10:10:40.705Z,19.12
2018-03-08T10:11:43.222Z,17.92
2018-03-08T10:12:45.741Z,19.95
2018-03-08T10:13:48.211Z,20.55
2018-03-08T10:14:50.719Z,19.27
2018-03-08T10:15:53.964Z,17.08
2018-03-08T10:16:57.213Z,18.77
2018-03-08T10:18:00.493Z,21.45
2018-03-08T10:19:03.502Z,20.23
2018-03-08T10:20:06.013Z,22.40
2018-03-08T10:21:09.282Z,20.20
2018-03-08T10:22:11.757Z,26.05
2018-03-08T10:23:15.726Z,24.48
2018-03-08T10:24:18.226Z,30.08
2018-03-08T10:25:20.793Z,25.08
2018-03-08T10:26:24.088Z,26.27
2018-03-08T10:27:26.562Z,28.80
2018-03-08T10:28:29.795Z,26.77
2018-03-08T10:29:33.206Z,30.23
2018-03-08T10:30:36.452Z,29.67
2018-03-08T10:31:38.961Z,30.37
2018-03-08T10:32:41.460Z,30.25
2018-03-08T10:33:43.938Z,29.87
2018-03-08T10:34:46.429Z,29.10
2018-03-08T10:35:48.950Z,32.05
2018-03-08T10:36:51.422Z,26.12
2018-03-08T10:37:53.910Z,29.45
2018-03-08T10:38:56.413Z,29.52
2018-03-08T10:39:58.942Z,30.92
2018-03-08T10:41:01.492Z,29.90
2018-03-08T10:42:04.726Z,31.52
2018-03-08T10:43:07.282Z,32.08
2018-03-08T10:44:09.745Z,34.53
2018-03-08T10:45:13.003Z,33.17
2018-03-08T10:46:15.515Z,32.83
2018-03-08T10:47:18.763Z,31.40
2018-03-08T10:48:21.265Z,31.80
2018-03-08T10:49:23.819Z,28.30
2018-03-08T10:50:26.371Z,31.17
2018-03-08T10:51:29.575Z,33.33
2018-03-08T10:52:32.817Z,34.90
2018-03-08T10:53:35.315Z,33.00
2018-03-08T10:54:37.807Z,36.30
2018-03-08T10:55:40.319Z,36.45
2018-03-08T10:56:42.788Z,31.83
2018-03-08T10:57:45.252Z,34.85
2018-03-08T10:58:47.730Z,34.22
2018-03-08T10:59:50.297Z,33.58
2018-03-08T11:00:55.469Z,32.03
2018-03-08T11:02:02.708Z,31.10
2018-03-08T11:03:06.926Z,34.38
2018-03-08T11:04:14.246Z,33.42
2018-03-08T11:05:16.739Z,29.65
2018-03-08T11:06:20.885Z,38.60
2018-03-08T11:07:23.363Z,34.70
2018-03-08T11:08:25.837Z,33.58
2018-03-08T11:09:29.089Z,34.08
2018-03-08T11:10:32.315Z,33.08
2018-03-08T11:11:34.782Z,34.38
2018-03-08T11:12:37.666Z,34.15
2018-03-08T11:13:40.688Z,34.17
2018-03-08T11:14:43.161Z,35.33
2018-03-08T11:15:46.410Z,32.70
2018-03-08T11:16:49.620Z,33.50
2018-03-08T11:17:52.186Z,28.85
2018-03-08T11:18:54.695Z,35.35
2018-03-08T11:19:57.484Z,31.00
2018-03-08T11:20:59.979Z,31.15
2018-03-08T11:22:02.443Z,36.88
2018-03-08T11:23:05.603Z,35.75
2018-03-08T11:24:08.926Z,32.97
2018-03-08T11:25:11.466Z,33.50
2018-03-08T11:26:13.957Z,38.38
2018-03-08T11:27:16.425Z,31.55
2018-03-08T11:28:18.870Z,35.38
2018-03-08T11:29:21.339Z,30.02
2018-03-08T11:30:23.838Z,30.23
2018-03-08T11:31:27.074Z,32.33
2018-03-08T11:32:29.540Z,36.67
2018-03-08T11:33:32.008Z,35.17
2018-03-08T11:34:34.941Z,33.20
2018-03-08T11:35:38.194Z,31.58
2018-03-08T11:36:40.986Z,34.17
2018-03-08T11:37:43.468Z,33.20
2018-03-08T11:38:45.984Z,32.22
2018-03-08T11:39:48.477Z,33.88
2018-03-08T11:40:51.718Z,33.88
2018-03-08T11:41:54.981Z,30.98
2018-03-08T11:42:58.636Z,35.80
2018-03-08T11:44:01.369Z,33.45
2018-03-08T11:45:03.891Z,31.48
2018-03-08T11:46:06.646Z,34.83
2018-03-08T11:47:09.692Z,35.58
2018-03-08T11:48:12.262Z,39.67
2018-03-08T11:49:16.500Z,30.50
2018-03-08T11:50:19.174Z,32.83
2018-03-08T11:51:22.396Z,30.17
2018-03-08T11:52:25.668Z,26.33
2018-03-08T11:53:28.968Z,26.92
2018-03-08T11:54:31.544Z,28.87
2018-03-08T11:55:34.188Z,31.42
2018-03-08T11:56:36.684Z,32.90
2018-03-08T11:57:39.963Z,28.30
2018-03-08T11:58:42.599Z,29.60
2018-03-08T11:59:45.090Z,30.33
2018-03-08T12:00:47.594Z,30.58
2018-03-08T12:01:50.932Z,34.25
2018-03-08T12:02:54.144Z,27.33
2018-03-08T12:03:56.894Z,31.45
2018-03-08T12:04:59.365Z,31.40
2018-03-08T12:06:01.897Z,27.60
2018-03-08T12:07:04.397Z,32.00
2018-03-08T12:08:07.753Z,28.67
2018-03-08T12:09:10.283Z,30.67
2018-03-08T12:10:12.763Z,33.30
2018-03-08T12:11:15.233Z,29.50
2018-03-08T12:12:17.702Z,29.27
2018-03-08T12:13:20.178Z,28.58
2018-03-08T12:14:22.669Z,29.77
2018-03-08T12:15:25.173Z,31.67
2018-03-08T12:16:27.699Z,30.52
2018-03-08T12:17:30.211Z,29.37
2018-03-08T12:18:32.679Z,31.60
2018-03-08T12:19:35.945Z,27.95
2018-03-08T12:20:39.164Z,29.90
2018-03-08T12:21:42.422Z,38.15
2018-03-08T12:22:44.949Z,29.10
2018-03-08T12:23:47.478Z,30.98
2018-03-08T12:24:50.003Z,32.63
2018-03-08T12:25:52.430Z,32.95
2018-03-08T12:26:55.644Z,28.00
2018-03-08T12:27:58.161Z,33.78
2018-03-08T12:29:02.147Z,29.20
2018-03-08T12:30:05.381Z,30.48
2018-03-08T12:31:08.648Z,29.08
2018-03-08T12:32:11.141Z,28.23
2018-03-08T12:33:13.650Z,27.77
2018-03-08T12:34:16.134Z,32.00
2018-03-08T12:35:18.606Z,35.70
2018-03-08T12:36:21.120Z,33.60
2018-03-08T12:37:23.589Z,33.42
2018-03-08T12:38:26.116Z,34.88
2018-03-08T12:39:28.644Z,34.38
2018-03-08T12:40:31.328Z,34.47
2018-03-08T12:41:33.822Z,31.12
2018-03-08T12:42:36.358Z,33.20
2018-03-08T12:43:38.874Z,33.97
2018-03-08T12:44:41.400Z,32.50
2018-03-08T12:45:43.858Z,33.20
2018-03-08T12:46:46.323Z,34.17
2018-03-08T12:47:49.175Z,30.52
2018-03-08T12:48:51.710Z,31.50
2018-03-08T12:49:55.453Z,30.58
2018-03-08T12:50:57.973Z,32.20
2018-03-08T12:52:00.482Z,31.05
2018-03-08T12:53:03.413Z,31.67
2018-03-08T12:54:06.641Z,33.67
2018-03-08T12:55:09.934Z,32.90
2018-03-08T12:56:12.424Z,32.38
2018-03-08T12:57:15.746Z,35.33
2018-03-08T12:58:18.263Z,30.92
2018-03-08T12:59:20.958Z,33.28
2018-03-08T13:00:23.460Z,32.95
2018-03-08T13:01:25.927Z,31.37
2018-03-08T13:02:28.381Z,33.80
2018-03-08T13:03:31.602Z,33.90
2018-03-08T13:04:34.190Z,29.63
2018-03-08T13:05:36.787Z,33.65
2018-03-08T13:06:40.060Z,28.23
2018-03-08T13:07:42.546Z,31.90
2018-03-08T13:08:45.019Z,34.13
2018-03-08T13:09:47.522Z,29.95
2018-03-08T13:10:50.169Z,29.02
2018-03-08T13:11:52.640Z,30.02
2018-03-08T13:12:55.095Z,37.35
2018-03-08T13:13:57.588Z,32.03
2018-03-08T13:15:00.059Z,29.90
2018-03-08T13:16:02.591Z,31.62
2018-03-08T13:17:05.113Z,29.52
2018-03-08T13:18:07.597Z,34.60
2018-03-08T13:19:10.062Z,33.85